Terminal Aerodrome Forecast
Issued by NWS Twin Cities, MN

Home | Current Version | Previous Version | Graphics & Text | Print | Product List | Glossary On
Versions: 1 2 3 4 5 6 7 8 9 10 11 12 13 14 15 16 17 18 19
391
FTUS43 KMPX 201120
TAFSTC
TAF
KSTC 201120Z 2012/2112 15005KT P6SM BKN015
     FM201400 14005KT P6SM SCT015
     FM201700 17011G17KT P6SM SCT150
     FM210200 16010KT P6SM FEW250=

USA.gov is the U.S. government's official web portal to all federal, state and local government web resources and services.